AirNav   Get $300 off a Bose A20 Aviation Headset
 
 291 users online  

2RI7 Malbone Estate Heliport
Newport, Rhode Island, USA

GOING TO NEWPORT?


FAA INFORMATION EFFECTIVE 12 SEPTEMBER 2019

Location

FAA Identifier: 2RI7
Lat/Long: 41-30-23.2000N 071-18-40.7300W
41-30.386667N 071-18.678833W
41.5064444,-71.3113139
(estimated)
Elevation: 83 ft. / 25 m (estimated)
Variation: 15W (2000)
From city: 2 miles SW of NEWPORT, RI
Time zone: UTC -4 (UTC -5 during Standard Time)
Zip code: 02840

Heliport Operations

Heliport use: Private use. Permission required prior to landing
Activation date: 06/2002
Control tower: no
ARTCC: BOSTON CENTER
FSS: BRIDGEPORT FLIGHT SERVICE STATION
Attendance: UNATNDD
Wind indicator: yes
Segmented circle: no

Heliport Communications

WX ASOS at UUU (2.1 nm NE): 132.075 (401-846-5910)
WX ASOS at PVD (14 nm N): 124.2 (401-734-2818)
WX ASOS at EWB (19 nm NE): 126.85 (508-992-0195)

Nearby radio navigation aids

VOR radial/distance  VOR name  Freq  Var
PVDr172/14.1PROVIDENCE VOR/DME115.6014W
SEYr045/23.6SANDY POINT VOR/DME117.8015W
ORWr110/31.0NORWICH VOR/DME110.0014W
MVYr297/32.1MARTHAS VINEYARD VOR/DME114.5015W
GONr086/35.0GROTON VOR/DME110.8514W
PUTr152/36.0PUTNAM VOR/DME117.4014W

 
NDB name  Hdg/Dist  Freq  Var  ID
TAUNTON227/25.822716WTAN - .- -.

Heliport Services

Runway Information

Helipad H1

Dimensions: 50 x 150 ft. / 15 x 46 m
Surface: turf
Traffic pattern: leftleft

Heliport Ownership and Management from official FAA records

Ownership: Privately-owned
Owner: MALBONE ROAD TRUST
MALBONE ESTATE, MALBONE ROAD
NEWPORT, RI 02840
Phone 401-848-0054
Manager: JAMES H. LEACH
MALBONE ESTATE, MALBONE ROAD
NEWPORT, RI 02840
Phone 401-848-0054

Additional Remarks

A52-H1 RADIO TOWER 331 FT 1/4 MILE SW.
FOR CD CTC PROVIDENCE APCH AT 401-738-8945, WHEN APCH CLSD CTC BOSTON ARTCC AT 603-879-6859.

Instrument Procedures

There are no published instrument procedures at 2RI7.

Some nearby airports with instrument procedures:

KUUU - Newport State Airport (2 nm NE)
KOQU - Quonset State Airport (7 nm NW)
KPVD - Theodore Francis Green State Airport (14 nm N)
KEWB - New Bedford Regional Airport (19 nm NE)
KBID - Block Island State Airport (24 nm SW)
 
Loc | Ops | Rwys | IFR | FBO | Links
Com | Nav | Svcs | Stats | Notes
Area around 2RI7 (Malbone Estate Heliport)
 
Road maps at: MapQuest Bing Google
 
Aerial photo
No photo
 
Sectional chart

 
Airport distance calculator
Flying to Malbone Estate Heliport? Find the distance to fly.

From to 2RI7

Sunrise and sunset
Times for 19-Sep-2019
 Local
(UTC-4)
 Zulu
(UTC)
Morning civil twilight06:0310:03
Sunrise06:3110:31
Sunset18:4822:48
Evening civil twilight19:1523:15

Current date and time
Zulu (UTC)  19-Sep-2019 07:51:27
Local (UTC-4)  19-Sep-2019 03:51:27
 
METAR
KUUU 
2nm NE 
190653Z AUTO 36005KT 10SM CLR 09/07 A3030 RMK AO2 SLP260 T00890067
KOQU 
7nm NW 
190250Z 34008KT 10SM SKC 10/06 A3033 RMK LAST
KPVD 
14nm NW 
190651Z AUTO 35006KT 10SM CLR 08/06 A3032 RMK AO2 SLP267 T00830056
KEWB 
19nm NE 
190653Z AUTO 00000KT 10SM CLR 05/03 A3030 RMK AO2 SLP260 T00500033
TAF
KPVD 
14nm NW 
190520Z 1906/2006 36006KT P6SM SKC FM191400 03007KT P6SM SKC FM192000 07006KT P6SM SKC FM200100 12003KT P6SM SKC FM200200 00000KT P6SM FEW250 FM200500 27003KT P6SM FEW250
NOTAMs
Click for the latest NOTAMs
NOTAMs are issued by the DoD/FAA and will open in a separate window not controlled by AirNav.

 

 
 

Would you like to see your business listed on this page?

 If your business provides an interesting product or service to pilots, flight crews, aircraft, or users of the Malbone Estate Heliport, you should consider listing it here.  To start the listing process, click on the button below
 
Add a business
 

Other Pages about Malbone Estate Heliport

www.malboneestate.com
 
Update a link
 
Copyright © AirNav, LLC. All rights reserved. Privacy Policy  Contact